Time;durP1;ratioP1;P1;durP2;ratioP2;P2;SDS_P1;SDS_P2;PMS_P1;PMS_P2;Temp;Humidity;BMP_temperature;BMP_pressure;BME280_temperature;BME280_humidity;BME280_pressure;Samples;Min_cycle;Max_cycle;Signal;HPM_P1;HPM_P2
2022/10/16 00:01:45;;;;;;;4.23;3.83;;;16.30;99.90;;;16.63;74.46;100767.06;4993445;28;20042;-71
2022/10/16 00:04:14;;;;;;;4.57;3.50;;;16.30;99.90;;;16.59;74.55;100746.69;4993899;28;20469;-72
2022/10/16 00:06:43;;;;;;;4.07;3.63;;;16.40;99.90;;;16.68;74.50;100756.25;4993921;28;20077;-71
2022/10/16 00:09:11;;;;;;;6.13;3.97;;;16.40;99.90;;;16.56;74.20;100744.13;4993584;28;20388;-71
2022/10/16 00:11:41;;;;;;;6.35;3.70;;;16.30;99.90;;;16.62;74.50;100754.63;4993609;28;20049;-72
2022/10/16 00:14:14;;;;;;;6.20;3.83;;;16.40;99.90;;;16.38;74.66;100760.66;4993543;28;20069;-71
2022/10/16 00:16:44;;;;;;;8.73;4.47;;;16.30;99.90;;;16.56;74.76;100751.28;4993616;28;20396;-71
2022/10/16 00:19:13;;;;;;;5.45;3.85;;;16.30;99.90;;;16.52;75.00;100750.50;4993247;28;20034;-71
2022/10/16 00:21:42;;;;;;;6.80;3.33;;;16.30;99.90;;;16.51;75.52;100763.91;4993260;28;20038;-71
2022/10/16 00:24:11;;;;;;;5.85;3.80;;;16.20;99.90;;;16.54;75.87;100737.97;4993166;28;20500;-72
2022/10/16 00:26:40;;;;;;;4.35;3.70;;;16.30;99.90;;;16.55;76.08;100761.06;4993190;28;20046;-71
2022/10/16 00:29:10;;;;;;;5.70;3.73;;;16.30;99.90;;;16.08;76.24;100653.06;4993046;28;20077;-71
2022/10/16 00:31:38;;;;;;;6.72;3.45;;;16.30;99.90;;;16.60;76.26;100753.81;4993441;28;20277;-71
2022/10/16 00:34:08;;;;;;;5.05;3.47;;;16.30;99.90;;;16.67;76.35;100744.66;5029732;28;20434;-71
2022/10/16 00:36:36;;;;;;;4.30;3.03;;;16.40;99.90;;;16.61;76.62;100730.63;5032307;28;20038;-71
2022/10/16 00:39:05;;;;;;;5.90;2.83;;;16.40;99.90;;;15.96;76.67;100625.84;5050390;28;20053;-72
2022/10/16 00:41:34;;;;;;;3.30;2.88;;;16.30;99.90;;;16.59;77.23;100736.00;5034961;28;20063;-71
2022/10/16 00:44:04;;;;;;;10.75;3.50;;;16.30;99.90;;;16.51;77.56;100735.38;5035886;28;20055;-71
2022/10/16 00:46:39;;;;;;;6.63;3.45;;;16.30;99.90;;;16.44;77.66;100720.44;5036169;28;20120;-71
2022/10/16 00:49:13;;;;;;;5.18;3.10;;;16.20;99.90;;;16.49;77.80;100733.69;5035814;28;20465;-72
2022/10/16 00:51:46;;;;;;;5.78;3.50;;;16.30;99.90;;;16.54;77.70;100721.06;5036393;28;20075;-71
2022/10/16 00:54:19;;;;;;;3.60;3.30;;;16.30;99.90;;;16.34;78.03;100708.28;5034702;28;20056;-71
2022/10/16 00:56:48;;;;;;;4.25;3.42;;;16.20;99.90;;;16.46;78.39;100731.94;5051554;28;20466;-71
2022/10/16 00:59:19;;;;;;;5.35;3.88;;;16.20;99.90;;;16.55;78.43;100749.53;5035695;28;20488;-72
2022/10/16 01:01:47;;;;;;;4.25;3.10;;;16.30;99.90;;;16.53;78.72;100765.56;5036930;28;20558;-72
2022/10/16 01:04:17;;;;;;;5.13;3.78;;;16.20;99.90;;;16.49;79.12;100766.59;5035745;28;20042;-72
2022/10/16 01:06:56;;;;;;;3.72;3.42;;;16.20;99.90;;;16.37;79.73;100734.91;5035791;28;20492;-71
2022/10/16 01:09:32;;;;;;;5.13;3.55;;;16.10;99.90;;;16.41;80.36;100741.91;5035750;28;20543;-71
2022/10/16 01:12:10;;;;;;;4.57;2.97;;;16.10;99.90;;;16.40;80.68;100748.16;5035480;28;20117;-73
2022/10/16 01:14:47;;;;;;;3.42;3.00;;;16.10;99.90;;;16.33;80.93;100767.94;5035667;28;20107;-71
2022/10/16 01:17:20;;;;;;;4.97;3.50;;;16.10;99.90;;;16.41;81.18;100747.25;5035600;28;20484;-71
2022/10/16 01:20:06;;;;;;;5.35;3.47;;;16.10;99.90;;;16.37;81.04;100745.59;5035512;28;20045;-71
2022/10/16 01:22:48;;;;;;;5.95;3.45;;;16.10;99.90;;;16.25;80.73;100741.50;5035463;28;20477;-71
2022/10/16 01:25:26;;;;;;;4.25;3.85;;;16.10;99.90;;;16.36;80.62;100746.50;5035442;28;20133;-71
2022/10/16 01:27:57;;;;;;;4.55;3.40;;;16.00;99.90;;;16.33;80.43;100754.59;5035127;28;20034;-71
2022/10/16 01:30:29;;;;;;;7.63;3.42;;;16.00;99.90;;;16.35;80.51;100747.44;5035055;28;20056;-71
2022/10/16 01:33:03;;;;;;;5.88;3.85;;;16.00;99.90;;;16.27;80.67;100749.44;5050402;28;20136;-71
2022/10/16 01:35:36;;;;;;;4.80;3.47;;;16.00;99.90;;;16.20;80.80;100754.06;5034897;28;20042;-71
2022/10/16 01:38:09;;;;;;;4.65;3.80;;;16.00;99.90;;;16.29;80.95;100752.94;5034923;28;20140;-72
2022/10/16 01:40:42;;;;;;;4.75;3.40;;;16.00;99.90;;;16.21;81.08;100754.97;5034852;28;20121;-71
2022/10/16 01:43:15;;;;;;;5.63;3.72;;;16.00;99.90;;;16.17;81.40;100759.53;5034805;28;20041;-71
2022/10/16 01:45:46;;;;;;;3.63;3.10;;;15.90;99.90;;;16.18;81.59;100752.41;5034774;28;20456;-71
2022/10/16 01:48:19;;;;;;;3.53;3.28;;;15.90;99.90;;;16.02;81.98;100737.72;5035006;28;20041;-72
2022/10/16 01:50:55;;;;;;;5.30;3.55;;;15.90;99.90;;;16.08;82.22;100729.56;5032829;28;20480;-71
2022/10/16 01:53:25;;;;;;;5.40;3.20;;;15.90;99.90;;;16.24;82.14;100761.06;5034675;28;20467;-72
2022/10/16 01:55:56;;;;;;;6.50;3.30;;;15.90;99.90;;;16.21;82.39;100765.63;5034936;28;20120;-71
2022/10/16 01:58:30;;;;;;;4.75;3.53;;;15.90;99.90;;;16.08;82.79;100749.13;5034696;28;20052;-72
2022/10/16 02:00:59;;;;;;;5.78;3.63;;;16.00;99.90;;;16.10;83.22;100757.06;5034747;28;20052;-71
2022/10/16 02:03:27;;;;;;;5.65;3.80;;;15.90;99.90;;;16.11;83.21;100756.13;5034459;28;20045;-71
2022/10/16 02:05:59;;;;;;;4.57;3.60;;;15.90;99.90;;;16.09;83.43;100772.19;5034326;28;20049;-71
2022/10/16 02:08:30;;;;;;;5.95;4.32;;;15.80;99.90;;;16.09;83.58;100774.88;5034330;28;20117;-71
2022/10/16 02:11:01;;;;;;;6.00;4.03;;;15.80;99.90;;;15.95;83.76;100752.19;5034305;28;20492;-71
2022/10/16 02:13:36;;;;;;;4.60;4.00;;;15.80;99.90;;;16.12;83.63;100780.09;5034797;28;20048;-71
2022/10/16 02:16:06;;;;;;;5.18;4.00;;;15.90;99.90;;;16.03;83.77;100755.47;5034133;28;20501;-71
2022/10/16 02:18:34;;;;;;;5.82;4.30;;;15.80;99.90;;;16.13;83.61;100764.97;5034411;28;20037;-71
2022/10/16 02:21:11;;;;;;;7.82;4.20;;;15.90;99.90;;;16.12;83.72;100765.91;5033937;28;20099;-72
2022/10/16 02:23:47;;;;;;;4.30;3.90;;;15.80;99.90;;;15.84;83.60;100708.91;5034264;28;20042;-71
2022/10/16 02:26:22;;;;;;;6.15;3.72;;;15.90;99.90;;;16.11;83.50;100762.34;5033998;28;20056;-71
2022/10/16 02:28:57;;;;;;;14.27;3.72;;;15.80;99.90;;;15.38;83.52;100643.53;5033975;28;20048;-71
2022/10/16 02:31:29;;;;;;;6.18;4.38;;;15.90;99.90;;;16.13;83.92;100772.97;5034451;28;20140;-71
2022/10/16 02:34:00;;;;;;;6.45;3.47;;;15.80;99.90;;;16.07;83.57;100767.81;5034133;28;20061;-71
2022/10/16 02:36:29;;;;;;;7.10;3.50;;;15.80;99.90;;;15.99;83.57;100761.81;5034057;28;20084;-72
2022/10/16 02:38:57;;;;;;;6.45;3.47;;;15.80;99.90;;;16.05;83.98;100766.97;5033728;28;20499;-71
2022/10/16 02:41:26;;;;;;;5.82;4.00;;;15.80;99.90;;;16.05;83.79;100758.97;5033621;28;20120;-71
2022/10/16 02:43:56;;;;;;;5.28;3.50;;;15.80;99.90;;;15.99;84.07;100772.50;5033655;28;20053;-72
2022/10/16 02:46:24;;;;;;;4.82;3.50;;;15.80;99.90;;;15.97;84.37;100779.66;5033641;28;20049;-71
2022/10/16 02:48:52;;;;;;;9.23;3.70;;;15.70;99.90;;;15.98;84.58;100792.97;5033504;28;20049;-71
2022/10/16 02:51:21;;;;;;;7.88;3.72;;;15.70;99.90;;;15.98;84.87;100795.66;5033839;28;20033;-72
2022/10/16 02:53:49;;;;;;;5.30;3.83;;;15.70;99.90;;;16.01;85.00;100778.66;5033499;28;20121;-72
2022/10/16 02:56:17;;;;;;;9.55;4.07;;;15.70;99.90;;;15.99;85.00;100772.50;5033559;28;20399;-71
2022/10/16 02:58:50;;;;;;;7.60;4.32;;;15.70;99.90;;;15.96;85.25;100776.13;5033702;28;20048;-71
2022/10/16 03:01:20;;;;;;;7.32;4.10;;;15.70;99.90;;;16.05;85.43;100777.66;5033837;28;20490;-71
2022/10/16 03:03:49;;;;;;;5.45;4.15;;;15.70;99.90;;;15.94;85.62;100771.75;5033685;28;20045;-71
2022/10/16 03:06:17;;;;;;;5.63;4.50;;;15.70;99.90;;;16.03;85.60;100782.16;5033289;28;20445;-71
2022/10/16 03:08:46;;;;;;;7.30;4.72;;;15.80;99.90;;;16.04;85.69;100781.25;5049076;28;20079;-71
2022/10/16 03:11:14;;;;;;;4.70;3.85;;;15.80;99.90;;;16.05;85.46;100767.88;5033168;28;20041;-71
2022/10/16 03:13:42;;;;;;;6.55;4.18;;;15.80;99.90;;;16.09;85.59;100793.56;5033464;28;20088;-71
2022/10/16 03:16:11;;;;;;;7.30;3.95;;;15.80;99.90;;;16.11;85.62;100797.06;5033294;28;20129;-71
2022/10/16 03:18:40;;;;;;;7.45;4.65;;;15.80;99.90;;;16.02;85.72;100785.75;5032123;28;20052;-71
2022/10/16 03:21:09;;;;;;;4.88;4.15;;;15.80;99.90;;;16.12;85.84;100804.13;5033093;28;20041;-71
2022/10/16 03:23:37;;;;;;;7.65;5.25;;;15.80;99.90;;;16.17;85.46;100802.22;5032034;28;20045;-71
2022/10/16 03:26:06;;;;;;;6.85;4.68;;;15.80;99.90;;;16.04;85.73;100789.25;5033335;28;20033;-72
2022/10/16 03:28:34;;;;;;;7.22;5.22;;;15.80;99.90;;;16.12;85.50;100803.28;5048615;28;20067;-72
2022/10/16 03:31:02;;;;;;;9.27;4.90;;;15.80;99.90;;;16.11;85.51;100797.06;5032965;28;20041;-72
2022/10/16 03:33:31;;;;;;;7.05;4.30;;;15.80;99.90;;;16.16;85.58;100807.59;5033355;28;20053;-71
2022/10/16 03:36:00;;;;;;;7.03;4.63;;;15.80;99.90;;;16.21;85.24;100811.00;5032810;28;20048;-71
2022/10/16 03:38:29;;;;;;;6.95;4.53;;;15.90;99.90;;;16.21;85.27;100809.22;5032188;28;20052;-72
2022/10/16 03:40:57;;;;;;;5.03;4.28;;;15.90;99.90;;;16.26;85.26;100819.75;5032887;28;20038;-72
2022/10/16 03:43:25;;;;;;;6.85;4.60;;;15.90;99.90;;;16.24;85.01;100810.91;5032988;28;20116;-71
2022/10/16 03:45:54;;;;;;;7.32;4.88;;;15.90;99.90;;;16.29;85.02;100819.69;5032806;28;20045;-72
2022/10/16 03:48:22;;;;;;;7.53;5.00;;;15.90;99.90;;;15.76;84.93;100737.56;5031525;28;20140;-71
2022/10/16 03:50:51;;;;;;;7.47;4.93;;;16.00;99.90;;;16.21;85.08;100821.69;5032767;28;20038;-71
2022/10/16 03:53:21;;;;;;;5.35;4.50;;;15.90;99.90;;;16.18;85.17;100819.13;5032796;28;20100;-72
2022/10/16 03:55:49;;;;;;;7.90;4.32;;;15.90;99.90;;;16.22;85.17;100831.44;5032762;28;20406;-72
2022/10/16 03:58:19;;;;;;;8.10;5.15;;;15.90;99.90;;;16.17;85.27;100828.03;5033224;28;20037;-71
2022/10/16 04:00:48;;;;;;;7.32;4.60;;;15.90;99.90;;;16.15;85.69;100835.19;5032782;28;20041;-71
2022/10/16 04:03:18;;;;;;;8.40;4.65;;;15.80;99.90;;;16.15;85.79;100830.75;5032945;28;20095;-71
2022/10/16 04:05:46;;;;;;;6.75;5.25;;;15.80;99.90;;;16.17;85.85;100844.03;5048353;28;20085;-71
2022/10/16 04:08:15;;;;;;;6.65;4.97;;;15.80;99.90;;;16.12;86.14;100848.63;5032649;28;20125;-72
2022/10/16 04:10:45;;;;;;;7.82;4.55;;;15.80;99.90;;;16.17;86.35;100842.25;5032648;28;20038;-71
2022/10/16 04:13:13;;;;;;;7.90;4.78;;;15.80;99.90;;;16.17;86.38;100841.38;5034191;28;20128;-71
2022/10/16 04:15:42;;;;;;;7.38;4.47;;;15.80;99.90;;;16.14;86.53;100839.66;5036672;28;20100;-72
2022/10/16 04:18:10;;;;;;;6.63;4.53;;;15.80;99.90;;;16.18;86.57;100856.47;5036477;28;20053;-72
2022/10/16 04:20:39;;;;;;;5.53;4.63;;;15.90;99.90;;;16.19;86.68;100869.78;5036562;28;20044;-71
2022/10/16 04:23:07;;;;;;;5.57;4.40;;;15.80;99.90;;;16.08;87.00;100855.84;5036549;28;20481;-71
2022/10/16 04:25:35;;;;;;;8.82;4.82;;;15.80;99.90;;;16.17;87.08;100871.59;5036534;28;20391;-71
2022/10/16 04:28:05;;;;;;;11.15;4.90;;;15.80;99.90;;;16.09;87.17;100862.94;5036438;28;20067;-71
2022/10/16 04:30:34;;;;;;;6.95;4.57;;;15.80;99.90;;;16.05;87.29;100849.69;5036377;28;20077;-71
2022/10/16 04:33:02;;;;;;;7.65;4.72;;;15.80;99.90;;;16.10;87.47;100867.34;5036133;28;20057;-71
2022/10/16 04:35:31;;;;;;;7.30;5.05;;;15.80;99.90;;;15.91;87.33;100842.06;5034985;28;20049;-71
2022/10/16 04:37:59;;;;;;;7.88;4.63;;;15.80;99.90;;;16.05;87.67;100879.94;5036153;28;20041;-72
2022/10/16 04:40:28;;;;;;;7.13;5.10;;;15.80;99.90;;;16.15;87.68;100885.91;5036227;28;20048;-72
2022/10/16 04:42:56;;;;;;;6.57;5.10;;;15.80;99.90;;;16.14;87.58;100898.38;5036104;28;20503;-72
2022/10/16 04:45:26;;;;;;;7.28;4.85;;;15.80;99.90;;;16.12;87.67;100908.19;5035838;28;20045;-72
2022/10/16 04:47:57;;;;;;;7.10;4.93;;;15.80;99.90;;;16.01;88.01;100901.41;5035821;28;20051;-72
2022/10/16 04:50:26;;;;;;;8.43;5.00;;;15.80;99.90;;;15.96;88.58;100909.53;5036098;28;20042;-71
2022/10/16 04:53:06;;;;;;;6.82;4.20;;;15.60;99.90;;;16.02;88.60;100916.50;5034821;28;20069;-71
2022/10/16 04:55:36;;;;;;;10.25;4.15;;;15.70;99.90;;;15.82;88.76;100886.78;5035898;28;20111;-72
2022/10/16 04:58:04;;;;;;;7.25;3.95;;;15.60;99.90;;;16.00;88.87;100916.56;5035832;28;20040;-72
2022/10/16 05:00:34;;;;;;;6.63;4.30;;;15.70;99.90;;;15.88;88.71;100878.63;5035543;28;20385;-71
2022/10/16 05:03:05;;;;;;;9.17;4.30;;;15.70;99.90;;;15.84;88.64;100882.28;5035796;28;20068;-71
2022/10/16 05:05:34;;;;;;;7.25;4.00;;;15.70;99.90;;;16.08;88.71;100929.69;5035517;28;20276;-71
2022/10/16 05:08:03;;;;;;;7.55;4.45;;;15.70;99.90;;;16.01;89.37;100918.28;5035712;28;20041;-72
2022/10/16 05:10:32;;;;;;;8.35;4.30;;;15.80;99.90;;;16.07;89.59;100939.47;5035303;28;20053;-71
2022/10/16 05:13:00;;;;;;;5.53;3.88;;;15.70;99.90;;;16.10;89.71;100939.38;5035641;28;20061;-72
2022/10/16 05:15:28;;;;;;;8.77;3.78;;;15.80;99.90;;;16.10;89.83;100942.06;5035629;28;20155;-71
2022/10/16 05:17:58;;;;;;;8.63;4.20;;;15.70;99.90;;;16.11;89.88;100937.59;5035180;28;20033;-71
2022/10/16 05:20:26;;;;;;;5.47;4.20;;;15.80;99.90;;;15.98;90.49;100928.16;5035226;28;20069;-71
2022/10/16 05:22:55;;;;;;;12.52;4.20;;;15.70;99.90;;;15.95;90.61;100938.94;5050757;28;20049;-72
2022/10/16 05:25:23;;;;;;;6.80;3.83;;;15.70;99.90;;;16.05;90.86;100959.09;5034742;28;20434;-71
2022/10/16 05:27:51;;;;;;;7.18;4.15;;;15.70;99.90;;;16.04;90.95;100960.03;5035338;28;20087;-71
2022/10/16 05:30:20;;;;;;;9.27;4.25;;;15.70;99.90;;;16.02;91.12;100959.19;5050616;28;20384;-71
2022/10/16 05:32:49;;;;;;;6.70;4.10;;;15.60;99.90;;;15.89;90.99;100931.09;5035066;28;20061;-71
2022/10/16 05:35:20;;;;;;;6.68;4.28;;;15.60;99.90;;;15.89;91.44;100945.28;5035189;28;20489;-71
2022/10/16 05:37:48;;;;;;;7.45;4.30;;;15.60;99.90;;;16.02;91.26;100957.41;5035213;28;20050;-72
2022/10/16 05:40:17;;;;;;;6.30;4.18;;;15.60;99.90;;;15.97;91.09;100948.63;5035137;28;20041;-71
2022/10/16 05:42:46;;;;;;;7.07;4.07;;;15.70;99.90;;;15.99;91.08;100948.59;5034798;28;20129;-71
2022/10/16 05:45:14;;;;;;;7.93;4.22;;;15.70;99.90;;;15.91;90.99;100958.59;5033755;28;20041;-72
2022/10/16 05:47:42;;;;;;;4.57;3.67;;;15.60;99.90;;;15.94;91.05;100958.50;5034645;28;20044;-72
2022/10/16 05:50:11;;;;;;;8.10;4.20;;;15.60;99.90;;;15.85;90.92;100958.75;5034899;28;20041;-71
2022/10/16 05:52:40;;;;;;;10.65;4.10;;;15.50;99.90;;;15.77;91.11;100960.72;5034769;28;20067;-71
2022/10/16 05:55:09;;;;;;;8.23;4.45;;;15.50;99.90;;;15.67;91.02;100964.50;5033529;28;20483;-71
2022/10/16 05:57:38;;;;;;;5.38;3.95;;;15.40;99.90;;;15.70;91.13;100956.47;5034798;28;20041;-71
2022/10/16 06:00:08;;;;;;;8.93;3.80;;;15.40;99.90;;;15.04;90.88;100857.59;5034717;28;20458;-73
2022/10/16 06:02:42;;;;;;;7.38;3.72;;;15.40;99.90;;;15.68;91.00;100967.13;5034488;28;20069;-71
2022/10/16 06:05:10;;;;;;;10.15;4.47;;;15.30;99.90;;;15.75;91.01;100970.53;5033350;28;20463;-71
2022/10/16 06:07:40;;;;;;;7.38;4.22;;;15.40;99.90;;;15.66;90.97;100974.28;5034589;28;20075;-73
2022/10/16 06:10:09;;;;;;;8.98;4.60;;;15.30;99.90;;;15.71;90.96;100983.09;5034258;28;20087;-71
2022/10/16 06:12:38;;;;;;;9.57;4.10;;;15.30;99.90;;;15.74;90.62;100974.09;5034482;28;20045;-71
2022/10/16 06:15:07;;;;;;;10.00;3.85;;;15.40;99.90;;;15.65;90.36;100993.00;5034368;28;20390;-72
2022/10/16 06:17:35;;;;;;;9.27;3.90;;;15.30;99.90;;;15.67;90.37;100989.41;5033129;28;20037;-71
2022/10/16 06:20:04;;;;;;;9.90;4.28;;;15.30;99.90;;;15.65;89.55;100993.00;5034323;28;20045;-71
2022/10/16 06:22:33;;;;;;;11.88;3.90;;;15.30;99.90;;;15.69;89.24;100994.69;5034256;28;20045;-71
2022/10/16 06:25:03;;;;;;;9.45;4.03;;;15.40;99.90;;;15.69;88.42;100986.69;5033887;28;20113;-72
2022/10/16 06:27:31;;;;;;;9.85;3.97;;;15.30;99.90;;;15.28;87.85;100928.94;5034286;28;20137;-71
2022/10/16 06:29:59;;;;;;;10.65;3.97;;;15.40;99.90;;;15.66;87.59;100998.28;5034350;28;20049;-71
2022/10/16 06:32:28;;;;;;;8.00;4.07;;;15.40;99.90;;;15.66;87.55;101010.78;5033712;28;20495;-71
2022/10/16 06:34:57;;;;;;;9.20;3.75;;;15.30;99.90;;;15.57;87.67;101002.97;5034034;28;20037;-71
2022/10/16 06:37:25;;;;;;;12.73;4.22;;;15.30;99.90;;;15.45;88.32;100996.13;5033652;28;20124;-71
2022/10/16 06:39:54;;;;;;;7.13;3.67;;;15.30;99.90;;;15.62;88.83;101017.09;5033597;28;20049;-71
2022/10/16 06:42:24;;;;;;;9.40;3.40;;;15.30;99.90;;;15.62;89.35;101015.28;5034138;28;20045;-71
2022/10/16 06:44:53;;;;;;;9.05;4.43;;;15.30;99.90;;;15.62;90.00;101031.28;5033603;28;20127;-72
2022/10/16 06:47:21;;;;;;;8.18;4.28;;;15.30;99.90;;;15.67;90.39;101023.19;5033526;28;20037;-71
2022/10/16 06:49:50;;;;;;;6.75;4.00;;;15.30;99.90;;;15.71;90.60;101030.19;5033445;28;20491;-72
2022/10/16 06:52:21;;;;;;;11.10;4.03;;;15.30;99.90;;;15.72;90.89;101026.59;5033554;28;20048;-73
2022/10/16 06:54:51;;;;;;;7.72;4.47;;;15.40;99.90;;;15.67;90.67;101040.06;5032378;28;20490;-72
2022/10/16 06:57:19;;;;;;;8.35;3.90;;;15.40;99.90;;;15.53;90.75;101019.94;5033650;28;20077;-73
2022/10/16 06:59:49;;;;;;;7.53;4.00;;;15.40;99.90;;;15.62;90.65;101052.59;5033146;28;20044;-73
2022/10/16 07:02:22;;;;;;;7.55;4.00;;;15.30;99.90;;;15.73;90.75;101055.06;5033649;28;20045;-72
2022/10/16 07:04:51;;;;;;;5.95;4.00;;;15.40;99.90;;;15.70;90.86;101056.00;5033572;28;20037;-71
2022/10/16 07:07:19;;;;;;;6.65;3.80;;;15.40;99.90;;;15.84;91.09;101069.00;5033262;28;20398;-71
2022/10/16 07:09:48;;;;;;;11.75;3.95;;;15.50;99.90;;;16.11;90.46;101081.72;5032433;28;20048;-72
2022/10/16 07:12:16;;;;;;;8.82;4.32;;;15.70;99.90;;;16.33;89.90;101074.97;5033354;28;20041;-72
2022/10/16 07:14:45;;;;;;;10.95;4.20;;;16.00;99.90;;;16.60;88.15;101084.09;5033162;28;20045;-73
2022/10/16 07:17:15;;;;;;;9.13;4.32;;;16.30;99.90;;;16.89;86.98;101102.94;5033126;28;20055;-71
2022/10/16 07:19:43;;;;;;;9.27;4.18;;;16.50;99.90;;;17.07;85.54;101092.59;5033376;28;20211;-72
2022/10/16 07:22:11;;;;;;;8.65;4.13;;;16.80;99.90;;;17.22;84.34;101079.75;5033239;28;20049;-72
2022/10/16 07:24:39;;;;;;;10.38;4.28;;;17.00;99.90;;;17.58;83.12;101110.81;5033045;28;20084;-73
2022/10/16 07:27:08;;;;;;;11.90;3.72;;;17.20;99.90;;;17.80;81.74;101115.50;5048486;28;20049;-73
2022/10/16 07:29:36;;;;;;;6.20;3.70;;;17.50;99.90;;;17.43;80.47;101020.28;5032926;28;20037;-74
2022/10/16 07:32:05;;;;;;;10.82;3.88;;;17.70;99.90;;;18.22;79.58;101121.31;5032914;28;20083;-73
2022/10/16 07:34:35;;;;;;;9.18;3.70;;;17.90;99.90;;;18.31;78.72;101131.72;5032210;28;20058;-71
2022/10/16 07:37:03;;;;;;;18.80;4.00;;;18.00;99.90;;;18.44;77.96;101140.28;5032599;28;20042;-71
2022/10/16 07:39:31;;;;;;;5.95;3.33;;;18.10;99.90;;;18.63;77.36;101133.41;5032729;28;20488;-72
2022/10/16 07:42:00;;;;;;;8.57;3.55;;;18.30;99.90;;;18.91;76.23;101150.34;5033165;28;20073;-71
2022/10/16 07:44:28;;;;;;;9.55;3.83;;;18.60;99.90;;;19.16;75.41;101163.75;5033092;28;20124;-71
2022/10/16 07:46:57;;;;;;;11.20;3.75;;;18.80;99.90;;;19.29;74.64;101157.91;5033358;28;20034;-71
2022/10/16 07:49:25;;;;;;;7.28;3.20;;;19.00;99.90;;;19.39;73.60;101166.53;5036668;28;20052;-70
2022/10/16 07:51:55;;;;;;;11.30;3.97;;;19.10;99.90;;;19.56;73.58;101156.06;5037372;28;20049;-70
2022/10/16 07:54:23;;;;;;;11.20;4.25;;;19.20;99.90;;;19.71;72.83;101169.78;5036674;28;20465;-71
2022/10/16 07:56:52;;;;;;;9.73;3.75;;;19.40;99.90;;;19.52;71.90;101141.00;5036634;28;20049;-71
2022/10/16 07:59:20;;;;;;;10.80;3.78;;;19.50;99.90;;;19.90;71.51;101179.88;5035594;28;20136;-71
2022/10/16 08:01:50;;;;;;;10.68;3.40;;;19.60;99.90;;;19.93;70.94;101167.19;5036888;28;20446;-71
2022/10/16 08:04:18;;;;;;;9.85;4.15;;;19.80;99.90;;;20.22;70.27;101191.16;5052187;28;20053;-71
2022/10/16 08:06:47;;;;;;;8.85;3.88;;;19.90;99.90;;;20.20;69.81;101182.28;5036786;28;20407;-69
2022/10/16 08:09:17;;;;;;;10.52;3.97;;;20.00;99.90;;;20.38;69.03;101194.97;5036784;28;20037;-71
2022/10/16 08:11:45;;;;;;;11.27;3.90;;;20.20;99.90;;;20.48;68.73;101198.16;5036839;28;20132;-72
2022/10/16 08:14:13;;;;;;;6.95;3.70;;;20.20;99.90;;;20.71;68.32;101211.59;5036404;28;20044;-71
2022/10/16 08:16:42;;;;;;;7.65;3.60;;;20.40;99.90;;;20.77;67.74;101208.63;5036838;28;20049;-72
2022/10/16 08:19:10;;;;;;;8.85;4.18;;;20.50;99.90;;;20.79;67.26;101213.97;5037070;28;20045;-72
2022/10/16 08:21:38;;;;;;;11.77;4.05;;;20.50;99.90;;;21.03;67.10;101223.72;5035317;28;20653;-72
2022/10/16 08:24:06;;;;;;;8.95;3.80;;;20.60;99.90;;;21.11;66.39;101226.97;5036383;28;20068;-73
2022/10/16 08:26:36;;;;;;;11.02;3.63;;;20.70;99.90;;;21.23;66.09;101231.84;5036425;28;20037;-72
2022/10/16 08:29:05;;;;;;;9.13;3.73;;;20.90;99.90;;;21.41;65.78;101228.34;5036467;28;20059;-71
2022/10/16 08:31:33;;;;;;;11.75;3.65;;;21.10;99.90;;;21.47;65.30;101236.16;5036072;28;20054;-71
2022/10/16 08:34:02;;;;;;;9.43;3.75;;;21.20;99.90;;;21.63;65.10;101241.75;5035629;28;20491;-72
2022/10/16 08:36:30;;;;;;;10.95;3.22;;;21.30;99.90;;;21.73;64.81;101251.19;5036205;28;20077;-73
2022/10/16 08:38:59;;;;;;;9.07;3.80;;;21.40;99.90;;;21.67;64.34;101248.78;5036174;28;20426;-70
2022/10/16 08:42:00;;;;;;;8.95;3.85;;;21.40;99.90;;;21.71;64.54;101262.03;5036304;28;20128;-70
2022/10/16 08:45:16;;;;;;;12.70;4.35;;;21.40;99.90;;;21.81;63.85;101262.53;5035618;28;20056;-70
2022/10/16 08:47:51;;;;;;;12.07;4.50;;;21.40;99.90;;;21.78;64.21;101273.41;5031355;28;20060;-70
2022/10/16 08:50:26;;;;;;;14.73;4.20;;;21.40;99.90;;;21.89;64.07;101277.41;5036029;28;20506;-71
2022/10/16 08:52:56;;;;;;;11.77;3.92;;;21.50;99.90;;;22.01;63.85;101276.88;5036062;28;20045;-69
2022/10/16 08:55:34;;;;;;;14.43;4.35;;;21.70;99.90;;;21.30;62.76;101150.78;5051162;28;20510;-74
2022/10/16 08:58:12;;;;;;;10.60;4.07;;;21.70;99.90;;;21.99;62.93;101284.13;5034509;28;20144;-76
2022/10/16 09:00:40;;;;;;;10.02;3.50;;;21.70;99.90;;;22.03;63.02;101268.69;5034401;28;20049;-76
2022/10/16 09:03:19;;;;;;;14.85;3.85;;;21.70;99.90;;;22.14;62.69;101294.22;5035550;28;20044;-78
2022/10/16 09:06:01;;;;;;;11.73;4.18;;;21.80;99.90;;;22.43;62.19;101298.31;5035508;28;20095;-75
2022/10/16 09:08:40;;;;;;;12.10;4.05;;;22.00;99.90;;;22.52;62.32;101292.47;5035528;28;20056;-71
2022/10/16 09:11:17;;;;;;;15.07;4.38;;;22.20;99.90;;;22.57;61.17;101284.22;5035073;28;20434;-75
2022/10/16 09:13:57;;;;;;;12.45;3.58;;;22.30;99.90;;;22.91;61.34;101297.84;5035419;28;20042;-79
2022/10/16 09:16:30;;;;;;;9.68;3.42;;;22.50;99.90;;;23.11;60.54;101303.16;5035155;28;20483;-73
2022/10/16 09:19:06;;;;;;;11.95;4.10;;;22.70;99.90;;;23.02;59.34;101300.88;5035105;28;20067;-70
2022/10/16 09:21:40;;;;;;;11.25;4.00;;;22.80;99.90;;;22.94;59.65;101292.28;5033946;28;20144;-73
2022/10/16 09:24:15;;;;;;;12.07;3.80;;;22.70;99.90;;;22.98;59.02;101312.75;5033857;28;20045;-74
2022/10/16 09:26:44;;;;;;;11.40;3.80;;;22.60;99.90;;;23.17;59.43;101310.94;5035072;28;20124;-75
2022/10/16 09:29:14;;;;;;;12.05;3.45;;;22.80;99.90;;;23.19;59.54;101309.91;5035110;28;20060;-72
2022/10/16 09:31:44;;;;;;;12.52;4.22;;;22.90;99.90;;;23.03;59.22;101270.25;5034838;28;20041;-76
2022/10/16 09:34:26;;;;;;;11.82;4.03;;;22.90;99.90;;;23.31;58.50;101305.75;5035244;28;20065;-74
2022/10/16 09:36:54;;;;;;;13.07;3.65;;;23.00;99.90;;;23.17;58.64;101314.50;5034926;28;20069;-68
2022/10/16 09:39:23;;;;;;;13.27;4.90;;;22.90;99.90;;;23.18;58.91;101312.69;5034984;28;20037;-75
2022/10/16 09:41:52;;;;;;;11.43;3.63;;;22.80;99.90;;;23.02;58.84;101300.88;5034938;28;20045;-75
2022/10/16 09:44:27;;;;;;;14.20;4.32;;;22.70;99.90;;;23.04;59.09;101316.06;5033361;28;20243;-71
2022/10/16 09:47:04;;;;;;;10.95;4.22;;;22.70;99.90;;;23.21;59.47;101323.31;5035255;28;20049;-71
2022/10/16 09:49:33;;;;;;;14.10;4.22;;;22.80;99.90;;;23.22;58.72;101314.28;5033578;28;20479;-71
2022/10/16 09:52:06;;;;;;;10.77;3.83;;;22.90;99.90;;;23.25;59.55;101319.50;5034752;28;20136;-70
2022/10/16 09:54:35;;;;;;;14.98;4.53;;;22.90;99.90;;;23.23;58.89;101324.13;5034766;28;20506;-70
2022/10/16 09:57:08;;;;;;;17.70;5.25;;;22.90;99.90;;;23.02;58.24;101323.34;5034621;28;20476;-70
2022/10/16 09:59:48;;;;;;;14.43;4.32;;;22.80;99.90;;;22.21;58.59;101236.41;5034689;28;20049;-75
2022/10/16 10:02:18;;;;;;;10.93;4.00;;;22.50;99.90;;;22.64;59.66;101326.13;5034310;28;20053;-75
2022/10/16 10:04:54;;;;;;;13.95;4.22;;;22.30;99.90;;;22.59;59.06;101336.25;5034558;28;20046;-75
2022/10/16 10:07:27;;;;;;;12.27;4.15;;;22.20;99.90;;;22.69;58.33;101330.34;5034307;28;20073;-75
2022/10/16 10:09:57;;;;;;;13.77;4.75;;;22.30;99.90;;;22.88;57.90;101327.69;5034391;28;20056;-76
2022/10/16 10:12:28;;;;;;;12.30;4.05;;;22.50;99.90;;;22.94;59.03;101321.97;5032758;28;20056;-75
2022/10/16 10:15:05;;;;;;;15.82;4.78;;;22.60;99.90;;;22.81;57.94;101307.31;5034075;28;20495;-75
2022/10/16 10:17:34;;;;;;;15.27;4.45;;;22.60;99.90;;;22.82;58.34;101323.41;5034351;28;20052;-75
2022/10/16 10:20:22;;;;;;;12.18;4.22;;;22.60;99.90;;;22.74;58.69;101339.13;5033967;28;20235;-75
2022/10/16 10:22:51;;;;;;;10.73;4.07;;;22.50;99.90;;;22.80;60.07;101344.19;5034508;28;20044;-75
2022/10/16 10:25:40;;;;;;;12.75;4.18;;;22.40;99.90;;;22.98;59.28;101339.75;5032878;28;20041;-75